createdAt,value
2024-05-09T00:00:22.162Z,8.30
2024-05-09T00:00:47.960Z,8.30
2024-05-09T00:01:14.258Z,8.29
2024-05-09T00:01:47.207Z,8.29
2024-05-09T00:02:19.925Z,8.28
2024-05-09T00:02:52.665Z,8.28
2024-05-09T00:03:25.345Z,8.29
2024-05-09T00:03:58.113Z,8.23
2024-05-09T00:04:30.788Z,8.22
2024-05-09T00:05:03.670Z,8.20
2024-05-09T00:05:37.183Z,8.19
2024-05-09T00:06:03.802Z,8.15
2024-05-09T00:06:36.533Z,8.12
2024-05-09T00:07:09.215Z,8.12
2024-05-09T00:07:41.930Z,8.11
2024-05-09T00:08:14.633Z,8.11
2024-05-09T00:08:47.502Z,8.11
2024-05-09T00:09:20.149Z,8.12
2024-05-09T00:09:52.830Z,8.10
2024-05-09T00:10:33.326Z,8.10
2024-05-09T00:10:57.650Z,8.08
2024-05-09T00:11:23.950Z,8.08
2024-05-09T00:11:56.933Z,8.08
2024-05-09T00:12:29.644Z,8.08
2024-05-09T00:13:02.323Z,8.07
2024-05-09T00:13:34.978Z,8.10
2024-05-09T00:14:07.657Z,8.07
2024-05-09T00:14:40.362Z,8.07
2024-05-09T00:15:13.201Z,8.07
2024-05-09T00:15:45.851Z,8.08
2024-05-09T00:16:18.523Z,8.07
2024-05-09T00:16:51.381Z,8.07
2024-05-09T00:17:24.189Z,8.08
2024-05-09T00:17:57.074Z,8.05
2024-05-09T00:18:30.220Z,8.05
2024-05-09T00:18:56.580Z,8.05
2024-05-09T00:19:29.439Z,8.07
2024-05-09T00:20:02.204Z,8.05
2024-05-09T00:20:38.797Z,8.05
2024-05-09T00:21:07.049Z,8.05
2024-05-09T00:21:33.269Z,8.05
2024-05-09T00:22:05.950Z,8.05
2024-05-09T00:22:38.636Z,8.04
2024-05-09T00:23:12.542Z,8.04
2024-05-09T00:23:42.428Z,8.02
2024-05-09T00:24:15.079Z,8.04
2024-05-09T00:24:47.760Z,8.00
2024-05-09T00:25:20.415Z,8.02
2024-05-09T00:25:53.159Z,8.00
2024-05-09T00:26:25.833Z,8.01
2024-05-09T00:26:58.503Z,8.00
2024-05-09T00:27:31.175Z,8.02
2024-05-09T00:28:03.854Z,8.01
2024-05-09T00:28:36.519Z,8.01
2024-05-09T00:29:09.232Z,8.00
2024-05-09T00:29:41.891Z,7.98
2024-05-09T00:30:21.380Z,7.95
2024-05-09T00:30:46.666Z,7.93
2024-05-09T00:31:12.829Z,7.93
2024-05-09T00:31:45.523Z,7.92
2024-05-09T00:32:18.415Z,7.90
2024-05-09T00:32:51.332Z,7.89
2024-05-09T00:33:17.977Z,7.89
2024-05-09T00:33:44.406Z,7.89
2024-05-09T00:34:17.360Z,7.90
2024-05-09T00:34:50.084Z,7.90
2024-05-09T00:35:22.792Z,7.89
2024-05-09T00:35:55.561Z,7.87
2024-05-09T00:36:28.243Z,7.87
2024-05-09T00:37:00.901Z,7.85
2024-05-09T00:37:33.577Z,7.86
2024-05-09T00:38:06.642Z,7.85
2024-05-09T00:38:33.097Z,7.85
2024-05-09T00:39:05.862Z,7.83
2024-05-09T00:39:38.645Z,7.80
2024-05-09T00:40:18.327Z,7.77
2024-05-09T00:40:43.898Z,7.75
2024-05-09T00:41:10.134Z,7.74
2024-05-09T00:41:42.866Z,7.72
2024-05-09T00:42:15.513Z,7.71
2024-05-09T00:42:48.188Z,7.68
2024-05-09T00:43:20.860Z,7.68
2024-05-09T00:43:53.628Z,7.68
2024-05-09T00:44:26.372Z,7.64
2024-05-09T00:44:59.078Z,7.67
2024-05-09T00:45:31.808Z,7.67
2024-05-09T00:46:04.970Z,7.68
2024-05-09T00:46:31.122Z,7.67
2024-05-09T00:47:03.963Z,7.68
2024-05-09T00:47:35.076Z,7.67
2024-05-09T00:48:09.442Z,7.64
2024-05-09T00:48:36.849Z,7.63
2024-05-09T00:49:09.712Z,7.63
2024-05-09T00:49:42.650Z,7.60
2024-05-09T00:50:12.864Z,7.61
2024-05-09T00:50:41.800Z,7.61
2024-05-09T00:51:08.368Z,7.61
2024-05-09T00:51:41.054Z,7.60
2024-05-09T00:52:13.706Z,7.58
2024-05-09T00:52:46.442Z,7.55
2024-05-09T00:53:19.295Z,7.57
2024-05-09T00:53:52.046Z,7.55
2024-05-09T00:54:24.718Z,7.55
2024-05-09T00:54:57.385Z,7.53
2024-05-09T00:55:30.076Z,7.53
2024-05-09T00:56:03.080Z,7.52
2024-05-09T00:56:35.835Z,7.52
2024-05-09T00:57:08.546Z,7.50
2024-05-09T00:57:41.311Z,7.50
2024-05-09T00:58:13.957Z,7.50
2024-05-09T00:58:46.673Z,7.49
2024-05-09T00:59:19.411Z,7.48
2024-05-09T00:59:52.120Z,7.49
2024-05-09T01:00:31.616Z,7.48
2024-05-09T01:00:56.979Z,7.48
2024-05-09T01:01:23.223Z,7.46
2024-05-09T01:01:56.017Z,7.45
2024-05-09T01:02:28.885Z,7.43
2024-05-09T01:03:01.943Z,7.43
2024-05-09T01:03:28.396Z,7.43
2024-05-09T01:04:01.338Z,7.43
2024-05-09T01:04:34.127Z,7.39
2024-05-09T01:05:06.892Z,7.39
2024-05-09T01:05:40.170Z,7.35
2024-05-09T01:06:06.749Z,7.37
2024-05-09T01:06:39.457Z,7.32
2024-05-09T01:07:12.126Z,7.30
2024-05-09T01:07:44.854Z,7.30
2024-05-09T01:08:17.563Z,7.27
2024-05-09T01:08:50.282Z,7.25
2024-05-09T01:09:22.946Z,7.24
2024-05-09T01:09:55.705Z,7.21
2024-05-09T01:10:34.115Z,7.17
2024-05-09T01:11:00.651Z,7.16
2024-05-09T01:11:26.971Z,7.16
2024-05-09T01:11:59.750Z,7.16
2024-05-09T01:12:32.537Z,7.16
2024-05-09T01:13:05.678Z,7.16
2024-05-09T01:13:32.027Z,7.17
2024-05-09T01:14:04.739Z,7.17
2024-05-09T01:14:37.586Z,7.15
2024-05-09T01:15:10.256Z,7.16
2024-05-09T01:15:42.988Z,7.16
2024-05-09T01:16:15.660Z,7.16
2024-05-09T01:16:48.374Z,7.16
2024-05-09T01:17:21.136Z,7.17
2024-05-09T01:17:54.165Z,7.16
2024-05-09T01:18:20.604Z,7.17
2024-05-09T01:18:51.745Z,7.17
2024-05-09T01:19:24.633Z,7.16
2024-05-09T01:19:57.306Z,7.17
2024-05-09T01:20:37.524Z,7.17
2024-05-09T01:21:01.243Z,7.16
2024-05-09T01:21:34.091Z,7.17
2024-05-09T01:22:06.767Z,7.16
2024-05-09T01:22:39.436Z,7.16
2024-05-09T01:23:12.770Z,7.16
2024-05-09T01:23:43.324Z,7.17
2024-05-09T01:24:15.991Z,7.16
2024-05-09T01:24:48.653Z,7.15
2024-05-09T01:25:21.337Z,7.15
2024-05-09T01:25:54.202Z,7.13
2024-05-09T01:26:26.893Z,7.12
2024-05-09T01:26:59.553Z,7.15
2024-05-09T01:27:32.221Z,7.13
2024-05-09T01:28:04.903Z,7.12
2024-05-09T01:28:37.578Z,7.12
2024-05-09T01:29:10.457Z,7.09
2024-05-09T01:29:43.115Z,7.09
2024-05-09T01:30:21.038Z,7.09
2024-05-09T01:30:47.898Z,7.09
2024-05-09T01:31:14.086Z,7.09
2024-05-09T01:31:46.878Z,7.09
2024-05-09T01:32:19.890Z,7.09
2024-05-09T01:32:46.271Z,7.07
2024-05-09T01:33:19.138Z,7.06
2024-05-09T01:33:51.977Z,7.07
2024-05-09T01:34:24.669Z,7.05
2024-05-09T01:34:57.360Z,7.05
2024-05-09T01:35:30.032Z,7.03
2024-05-09T01:36:02.716Z,7.02
2024-05-09T01:36:35.388Z,7.02
2024-05-09T01:37:08.060Z,6.99
2024-05-09T01:37:40.862Z,7.02
2024-05-09T01:38:14.200Z,6.98
2024-05-09T01:38:40.522Z,6.97
2024-05-09T01:39:13.222Z,6.95
2024-05-09T01:39:46.015Z,6.94
2024-05-09T01:40:25.188Z,6.94
2024-05-09T01:40:50.857Z,6.91
2024-05-09T01:41:17.063Z,6.89
2024-05-09T01:41:49.731Z,6.88
2024-05-09T01:42:22.402Z,6.87
2024-05-09T01:42:55.920Z,6.84
2024-05-09T01:43:22.102Z,6.80
2024-05-09T01:43:54.980Z,6.81
2024-05-09T01:44:27.781Z,6.80
2024-05-09T01:45:00.447Z,6.79
2024-05-09T01:45:33.273Z,6.79
2024-05-09T01:46:06.088Z,6.79
2024-05-09T01:46:37.078Z,6.77
2024-05-09T01:47:09.910Z,6.77
2024-05-09T01:47:42.931Z,6.76
2024-05-09T01:48:09.763Z,6.76
2024-05-09T01:48:36.815Z,6.76
2024-05-09T01:49:09.688Z,6.76
2024-05-09T01:49:42.436Z,6.74
2024-05-09T01:50:43.359Z,6.73
2024-05-09T01:51:10.097Z,6.74
2024-05-09T01:51:42.817Z,6.74
2024-05-09T01:52:15.497Z,6.73
2024-05-09T01:52:48.199Z,6.73
2024-05-09T01:53:20.884Z,6.73
2024-05-09T01:53:53.581Z,6.71
2024-05-09T01:54:26.265Z,6.73
2024-05-09T01:55:00.780Z,6.71
2024-05-09T01:55:28.259Z,6.71
2024-05-09T01:56:01.661Z,6.73
2024-05-09T01:56:27.924Z,6.71
2024-05-09T01:57:02.078Z,6.71
2024-05-09T01:57:28.219Z,6.69
2024-05-09T01:58:00.926Z,6.70
2024-05-09T01:58:33.691Z,6.73
2024-05-09T01:59:06.486Z,6.70
2024-05-09T01:59:39.264Z,6.70
2024-05-09T02:00:41.854Z,6.69
2024-05-09T02:01:09.613Z,6.67
2024-05-09T02:01:55.627Z,6.67
2024-05-09T02:02:08.086Z,6.66
2024-05-09T02:02:34.526Z,6.64
2024-05-09T02:03:07.450Z,6.62
2024-05-09T02:03:33.898Z,6.61
2024-05-09T02:04:07.052Z,6.61
2024-05-09T02:04:33.530Z,6.61
2024-05-09T02:05:06.486Z,6.61
2024-05-09T02:05:39.464Z,6.58
2024-05-09T02:06:12.281Z,6.58
2024-05-09T02:06:45.072Z,6.56
2024-05-09T02:07:17.712Z,6.56
2024-05-09T02:07:50.465Z,6.54
2024-05-09T02:08:23.162Z,6.54
2024-05-09T02:08:55.852Z,6.54
2024-05-09T02:09:28.513Z,6.52
2024-05-09T02:10:01.205Z,6.54
2024-05-09T02:10:33.987Z,6.51
2024-05-09T02:11:06.782Z,6.51
2024-05-09T02:11:39.726Z,6.49
2024-05-09T02:12:06.314Z,6.49
2024-05-09T02:12:32.965Z,6.49
2024-05-09T02:12:59.165Z,6.49
2024-05-09T02:13:31.969Z,6.48
2024-05-09T02:14:04.635Z,6.49
2024-05-09T02:14:37.483Z,6.48
2024-05-09T02:15:10.299Z,6.46
2024-05-09T02:15:42.965Z,6.44
2024-05-09T02:16:15.630Z,6.43
2024-05-09T02:16:48.329Z,6.41
2024-05-09T02:17:21.108Z,6.41
2024-05-09T02:17:54.067Z,6.38
2024-05-09T02:18:20.735Z,6.40
2024-05-09T02:18:53.524Z,6.38
2024-05-09T02:19:26.336Z,6.37
2024-05-09T02:19:59.027Z,6.34
2024-05-09T02:20:59.286Z,6.33
2024-05-09T02:21:31.948Z,6.33
2024-05-09T02:22:04.618Z,6.31
2024-05-09T02:22:37.313Z,6.30
2024-05-09T02:23:10.126Z,6.30
2024-05-09T02:23:42.922Z,6.30
2024-05-09T02:24:15.830Z,6.28
2024-05-09T02:24:48.466Z,6.28
2024-05-09T02:25:21.143Z,6.27
2024-05-09T02:25:53.877Z,6.27
2024-05-09T02:26:26.636Z,6.27
2024-05-09T02:26:59.351Z,6.25
2024-05-09T02:27:32.145Z,6.25
2024-05-09T02:28:04.854Z,6.22
2024-05-09T02:28:37.515Z,6.25
2024-05-09T02:29:10.355Z,6.22
2024-05-09T02:29:43.094Z,6.22
2024-05-09T02:30:22.838Z,6.21
2024-05-09T02:30:48.088Z,6.21
2024-05-09T02:31:14.247Z,6.18
2024-05-09T02:31:46.986Z,6.18
2024-05-09T02:32:19.813Z,6.18
2024-05-09T02:32:52.601Z,6.17
2024-05-09T02:33:25.570Z,6.15
2024-05-09T02:33:52.106Z,6.15
2024-05-09T02:34:18.474Z,6.14
2024-05-09T02:34:51.244Z,6.12
2024-05-09T02:35:24.061Z,6.11
2024-05-09T02:35:56.810Z,6.11
2024-05-09T02:36:29.478Z,6.09
2024-05-09T02:37:02.156Z,6.06
2024-05-09T02:37:34.848Z,6.04
2024-05-09T02:38:07.551Z,6.03
2024-05-09T02:38:40.417Z,6.01
2024-05-09T02:39:13.083Z,6.00
2024-05-09T02:39:45.772Z,5.99
2024-05-09T02:40:25.420Z,6.00
2024-05-09T02:40:50.581Z,5.97
2024-05-09T02:41:16.868Z,5.97
2024-05-09T02:41:49.559Z,5.97
2024-05-09T02:42:22.235Z,5.97
2024-05-09T02:42:54.904Z,5.96
2024-05-09T02:43:27.572Z,5.96
2024-05-09T02:44:00.291Z,5.93
2024-05-09T02:44:32.987Z,5.91
2024-05-09T02:45:05.671Z,5.93
2024-05-09T02:45:38.388Z,5.90
2024-05-09T02:46:11.068Z,5.91
2024-05-09T02:46:43.886Z,5.91
2024-05-09T02:47:16.671Z,5.90
2024-05-09T02:47:49.597Z,5.86
2024-05-09T02:48:16.260Z,5.85
2024-05-09T02:48:42.718Z,5.85
2024-05-09T02:49:15.705Z,5.83
2024-05-09T02:49:41.993Z,5.83
2024-05-09T02:50:19.411Z,5.83
2024-05-09T02:50:46.873Z,5.82
2024-05-09T02:51:13.213Z,5.81
2024-05-09T02:51:46.005Z,5.81
2024-05-09T02:52:18.805Z,5.79
2024-05-09T02:52:51.662Z,5.81
2024-05-09T02:53:25.609Z,5.81
2024-05-09T02:53:51.795Z,5.79
2024-05-09T02:54:24.600Z,5.78
2024-05-09T02:54:57.239Z,5.75
2024-05-09T02:55:29.907Z,5.76
2024-05-09T02:56:02.651Z,5.75
2024-05-09T02:56:35.423Z,5.75
2024-05-09T02:57:08.115Z,5.75
2024-05-09T02:57:40.804Z,5.76
2024-05-09T02:58:13.463Z,5.74
2024-05-09T02:58:46.226Z,5.74
2024-05-09T02:59:18.996Z,5.72
2024-05-09T02:59:51.677Z,5.72
2024-05-09T03:00:29.961Z,5.72
2024-05-09T03:00:55.739Z,5.72
2024-05-09T03:01:28.532Z,5.68
2024-05-09T03:02:01.389Z,5.67
2024-05-09T03:02:34.222Z,5.65
2024-05-09T03:03:07.336Z,5.64
2024-05-09T03:03:34.044Z,5.64
2024-05-09T03:04:00.446Z,5.64
2024-05-09T03:04:33.250Z,5.63
2024-05-09T03:05:06.081Z,5.61
2024-05-09T03:05:38.901Z,5.60
2024-05-09T03:06:11.753Z,5.60
2024-05-09T03:06:44.461Z,5.60
2024-05-09T03:07:19.748Z,5.58
2024-05-09T03:07:46.308Z,5.54
2024-05-09T03:08:19.035Z,5.53
2024-05-09T03:08:51.745Z,5.51
2024-05-09T03:09:24.428Z,5.48
2024-05-09T03:09:57.117Z,5.48
2024-05-09T03:10:35.563Z,5.46
2024-05-09T03:11:01.969Z,5.46
2024-05-09T03:11:29.087Z,5.45
2024-05-09T03:11:55.392Z,5.46
2024-05-09T03:12:28.185Z,5.46
2024-05-09T03:13:00.847Z,5.46
2024-05-09T03:13:33.506Z,5.43
2024-05-09T03:14:06.256Z,5.43
2024-05-09T03:14:38.991Z,5.45
2024-05-09T03:15:11.648Z,5.43
2024-05-09T03:15:44.512Z,5.45
2024-05-09T03:16:17.347Z,5.43
2024-05-09T03:16:50.106Z,5.43
2024-05-09T03:17:22.872Z,5.43
2024-05-09T03:17:56.193Z,5.42
2024-05-09T03:18:22.636Z,5.43
2024-05-09T03:18:55.522Z,5.43
2024-05-09T03:19:28.390Z,5.43
2024-05-09T03:20:01.171Z,5.42
2024-05-09T03:20:35.823Z,5.45
2024-05-09T03:21:03.134Z,5.42
2024-05-09T03:21:35.909Z,5.43
2024-05-09T03:22:08.581Z,5.43
2024-05-09T03:22:41.271Z,5.43
2024-05-09T03:23:14.061Z,5.43
2024-05-09T03:23:46.946Z,5.43
2024-05-09T03:24:19.681Z,5.42
2024-05-09T03:24:52.369Z,5.43
2024-05-09T03:25:25.087Z,5.42
2024-05-09T03:25:57.849Z,5.43
2024-05-09T03:26:30.623Z,5.43
2024-05-09T03:27:03.332Z,5.45
2024-05-09T03:27:36.001Z,5.45
2024-05-09T03:28:08.695Z,5.45
2024-05-09T03:28:41.955Z,5.43
2024-05-09T03:29:08.167Z,5.43
2024-05-09T03:29:40.829Z,5.45
2024-05-09T03:30:25.923Z,5.43
2024-05-09T03:30:45.608Z,5.42
2024-05-09T03:31:11.794Z,5.43
2024-05-09T03:31:44.590Z,5.43
2024-05-09T03:32:17.419Z,5.43
2024-05-09T03:32:50.231Z,5.42
2024-05-09T03:33:23.386Z,5.43
2024-05-09T03:33:54.217Z,5.45
2024-05-09T03:34:26.981Z,5.45
2024-05-09T03:34:59.657Z,5.43
2024-05-09T03:35:32.399Z,5.45
2024-05-09T03:36:08.246Z,5.43
2024-05-09T03:36:35.854Z,5.42
2024-05-09T03:37:08.522Z,5.46
2024-05-09T03:37:41.194Z,5.45
2024-05-09T03:38:14.035Z,5.42
2024-05-09T03:38:46.820Z,5.43
2024-05-09T03:39:19.494Z,5.42
2024-05-09T03:39:52.156Z,5.42
2024-05-09T03:40:28.942Z,5.40
2024-05-09T03:40:56.931Z,5.40
2024-05-09T03:41:23.202Z,5.39
2024-05-09T03:41:56.041Z,5.39
2024-05-09T03:42:28.715Z,5.40
2024-05-09T03:43:01.399Z,5.40
2024-05-09T03:43:34.090Z,5.40
2024-05-09T03:44:06.843Z,5.40
2024-05-09T03:44:39.610Z,5.42
2024-05-09T03:45:12.342Z,5.42
2024-05-09T03:45:45.031Z,5.42
2024-05-09T03:46:17.741Z,5.42
2024-05-09T03:46:50.476Z,5.43
2024-05-09T03:47:23.295Z,5.43
2024-05-09T03:47:56.212Z,5.45
2024-05-09T03:48:22.684Z,5.45
2024-05-09T03:48:55.487Z,5.45
2024-05-09T03:49:28.215Z,5.43
2024-05-09T03:50:00.975Z,5.45
2024-05-09T03:50:35.944Z,5.46
2024-05-09T03:51:03.052Z,5.45
2024-05-09T03:51:35.764Z,5.45
2024-05-09T03:52:08.445Z,5.45
2024-05-09T03:52:41.133Z,5.43
2024-05-09T03:53:14.187Z,5.42
2024-05-09T03:53:40.556Z,5.43
2024-05-09T03:54:13.229Z,5.43
2024-05-09T03:54:45.923Z,5.42
2024-05-09T03:55:18.606Z,5.43
2024-05-09T03:55:51.353Z,5.42
2024-05-09T03:56:24.086Z,5.43
2024-05-09T03:56:56.757Z,5.43
2024-05-09T03:57:29.421Z,5.42
2024-05-09T03:58:02.091Z,5.40
2024-05-09T03:58:34.792Z,5.43
2024-05-09T03:59:07.464Z,5.42
2024-05-09T03:59:40.199Z,5.42
2024-05-09T04:00:18.212Z,5.40
2024-05-09T04:00:45.062Z,5.39
2024-05-09T04:01:11.363Z,5.39
2024-05-09T04:01:44.166Z,5.38
2024-05-09T04:02:17.009Z,5.39
2024-05-09T04:02:49.749Z,5.40
2024-05-09T04:03:22.806Z,5.39
2024-05-09T04:03:49.327Z,5.40
2024-05-09T04:04:22.102Z,5.39
2024-05-09T04:04:54.882Z,5.39
2024-05-09T04:05:27.601Z,5.40
2024-05-09T04:06:00.261Z,5.40
2024-05-09T04:06:32.935Z,5.40
2024-05-09T04:07:05.604Z,5.42
2024-05-09T04:07:38.300Z,5.42
2024-05-09T04:08:11.481Z,5.42
2024-05-09T04:08:37.832Z,5.42
2024-05-09T04:09:10.496Z,5.45
2024-05-09T04:09:43.165Z,5.45
2024-05-09T04:10:24.034Z,5.46
2024-05-09T04:10:46.991Z,5.48
2024-05-09T04:11:19.771Z,5.48
2024-05-09T04:11:52.852Z,5.49
2024-05-09T04:12:19.195Z,5.48
2024-05-09T04:12:51.860Z,5.51
2024-05-09T04:13:24.539Z,5.53
2024-05-09T04:13:57.248Z,5.49
2024-05-09T04:14:30.117Z,5.53
2024-05-09T04:15:02.848Z,5.51
2024-05-09T04:15:35.524Z,5.53
2024-05-09T04:16:08.210Z,5.56
2024-05-09T04:16:40.891Z,5.56
2024-05-09T04:17:13.635Z,5.53
2024-05-09T04:17:46.490Z,5.54
2024-05-09T04:18:19.331Z,5.53
2024-05-09T04:18:52.146Z,5.54
2024-05-09T04:19:24.983Z,5.54
2024-05-09T04:19:57.807Z,5.54
2024-05-09T04:20:37.716Z,5.56
2024-05-09T04:21:02.794Z,5.57
2024-05-09T04:21:29.022Z,5.58
2024-05-09T04:22:01.755Z,5.57
2024-05-09T04:22:34.439Z,5.58
2024-05-09T04:23:08.166Z,5.60
2024-05-09T04:23:35.357Z,5.61
2024-05-09T04:24:08.117Z,5.60
2024-05-09T04:24:40.775Z,5.61
2024-05-09T04:25:13.458Z,5.63
2024-05-09T04:25:46.263Z,5.64
2024-05-09T04:26:19.030Z,5.65
2024-05-09T04:26:51.689Z,5.67
2024-05-09T04:27:24.422Z,5.67
2024-05-09T04:27:57.096Z,5.71
2024-05-09T04:28:29.787Z,5.71
2024-05-09T04:29:02.540Z,5.72
2024-05-09T04:29:35.272Z,5.74
2024-05-09T04:30:15.399Z,5.75
2024-05-09T04:30:41.578Z,5.76
2024-05-09T04:31:11.158Z,5.78
2024-05-09T04:31:43.906Z,5.81
2024-05-09T04:32:16.864Z,5.81
2024-05-09T04:32:49.819Z,5.82
2024-05-09T04:33:22.946Z,5.83
2024-05-09T04:33:49.415Z,5.83
2024-05-09T04:34:22.296Z,5.85
2024-05-09T04:34:55.032Z,5.86
2024-05-09T04:35:27.930Z,5.86
2024-05-09T04:36:00.660Z,5.90
2024-05-09T04:36:33.309Z,5.90
2024-05-09T04:37:06.080Z,5.91
2024-05-09T04:37:38.760Z,5.93
2024-05-09T04:38:11.530Z,5.93
2024-05-09T04:38:44.262Z,5.96
2024-05-09T04:39:16.930Z,5.96
2024-05-09T04:39:49.639Z,5.96
2024-05-09T04:40:28.575Z,5.97
2024-05-09T04:40:54.530Z,5.99
2024-05-09T04:41:20.926Z,6.00
2024-05-09T04:41:53.578Z,6.03
2024-05-09T04:42:26.264Z,6.06
2024-05-09T04:42:58.943Z,6.06
2024-05-09T04:43:31.627Z,6.06
2024-05-09T04:44:04.395Z,6.08
2024-05-09T04:44:37.093Z,6.08
2024-05-09T04:45:09.746Z,6.09
2024-05-09T04:45:42.463Z,6.09
2024-05-09T04:46:15.116Z,6.12
2024-05-09T04:46:47.856Z,6.12
2024-05-09T04:47:20.663Z,6.15
2024-05-09T04:47:53.628Z,6.17
2024-05-09T04:48:20.155Z,6.17
2024-05-09T04:48:53.123Z,6.21
2024-05-09T04:49:25.880Z,6.21
2024-05-09T04:49:58.743Z,6.21
2024-05-09T04:50:36.708Z,6.21
2024-05-09T04:51:03.687Z,6.22
2024-05-09T04:51:29.886Z,6.22
2024-05-09T04:52:02.562Z,6.25
2024-05-09T04:52:35.256Z,6.27
2024-05-09T04:53:09.565Z,6.28
2024-05-09T04:53:39.133Z,6.30
2024-05-09T04:54:22.216Z,6.30
2024-05-09T04:54:44.958Z,6.31
2024-05-09T04:55:11.119Z,6.31
2024-05-09T04:55:43.860Z,6.33
2024-05-09T04:56:16.576Z,6.33
2024-05-09T04:56:49.287Z,6.37
2024-05-09T04:57:21.982Z,6.36
2024-05-09T04:57:54.694Z,6.38
2024-05-09T04:58:27.389Z,6.38
2024-05-09T04:59:00.136Z,6.38
2024-05-09T04:59:32.925Z,6.37
2024-05-09T05:00:09.429Z,6.40
2024-05-09T05:00:38.869Z,6.41
2024-05-09T05:01:08.859Z,6.41
2024-05-09T05:01:41.553Z,6.44
2024-05-09T05:02:14.345Z,6.44
2024-05-09T05:02:47.180Z,6.46
2024-05-09T05:03:20.285Z,6.46
2024-05-09T05:03:51.200Z,6.51
2024-05-09T05:04:24.028Z,6.51
2024-05-09T05:04:56.912Z,6.54
2024-05-09T05:05:29.731Z,6.55
2024-05-09T05:06:02.572Z,6.56
2024-05-09T05:06:35.313Z,6.61
2024-05-09T05:07:07.979Z,6.62
2024-05-09T05:07:40.662Z,6.61
2024-05-09T05:08:13.979Z,6.64
2024-05-09T05:08:44.456Z,6.64
2024-05-09T05:09:17.204Z,6.66
2024-05-09T05:09:49.945Z,6.66
2024-05-09T05:10:32.885Z,6.67
2024-05-09T05:10:54.775Z,6.69
2024-05-09T05:11:21.005Z,6.67
2024-05-09T05:11:53.824Z,6.71
2024-05-09T05:12:24.949Z,6.74
2024-05-09T05:12:51.582Z,6.76
2024-05-09T05:13:24.906Z,6.76
2024-05-09T05:13:51.598Z,6.79
2024-05-09T05:14:24.349Z,6.79
2024-05-09T05:14:57.431Z,6.79
2024-05-09T05:15:23.605Z,6.79
2024-05-09T05:15:57.771Z,6.80
2024-05-09T05:16:24.634Z,6.81
2024-05-09T05:16:57.358Z,6.81
2024-05-09T05:17:30.298Z,6.84
2024-05-09T05:17:56.750Z,6.88
2024-05-09T05:18:29.728Z,6.89
2024-05-09T05:19:02.513Z,6.89
2024-05-09T05:19:35.444Z,6.91
2024-05-09T05:20:08.654Z,6.94
2024-05-09T05:20:36.652Z,6.94
2024-05-09T05:21:09.402Z,6.95
2024-05-09T05:21:42.079Z,6.98
2024-05-09T05:22:14.751Z,6.98
2024-05-09T05:22:47.516Z,6.99
2024-05-09T05:23:20.466Z,6.99
2024-05-09T05:23:46.689Z,7.02
2024-05-09T05:24:19.356Z,7.05
2024-05-09T05:24:52.039Z,7.05
2024-05-09T05:25:24.695Z,7.09
2024-05-09T05:25:57.463Z,7.09
2024-05-09T05:26:30.216Z,7.10
2024-05-09T05:27:02.892Z,7.13
2024-05-09T05:27:35.592Z,7.16
2024-05-09T05:28:08.259Z,7.16
2024-05-09T05:28:40.955Z,7.21
2024-05-09T05:29:13.728Z,7.21
2024-05-09T05:29:46.472Z,7.23
2024-05-09T05:30:25.057Z,7.27
2024-05-09T05:30:51.242Z,7.25
2024-05-09T05:31:17.450Z,7.25
2024-05-09T05:31:50.245Z,7.27
2024-05-09T05:32:23.107Z,7.28
2024-05-09T05:32:56.182Z,7.30
2024-05-09T05:33:23.251Z,7.30
2024-05-09T05:33:53.655Z,7.32
2024-05-09T05:34:26.402Z,7.32
2024-05-09T05:34:59.233Z,7.37
2024-05-09T05:35:31.987Z,7.39
2024-05-09T05:36:04.713Z,7.43
2024-05-09T05:36:37.443Z,7.45
2024-05-09T05:37:10.139Z,7.48
2024-05-09T05:37:42.834Z,7.50
2024-05-09T05:38:15.749Z,7.50
2024-05-09T05:38:48.700Z,7.55
2024-05-09T05:39:21.437Z,7.55
2024-05-09T05:39:52.517Z,7.58
2024-05-09T05:40:32.982Z,7.58
2024-05-09T05:40:57.319Z,7.58
2024-05-09T05:41:23.524Z,7.61
2024-05-09T05:41:56.283Z,7.63
2024-05-09T05:42:28.941Z,7.63
2024-05-09T05:43:01.631Z,7.61
2024-05-09T05:43:34.428Z,7.67
2024-05-09T05:44:07.087Z,7.69
2024-05-09T05:44:39.788Z,7.71
2024-05-09T05:45:12.483Z,7.74
2024-05-09T05:45:45.179Z,7.74
2024-05-09T05:46:17.978Z,7.77
2024-05-09T05:46:50.634Z,7.80
2024-05-09T05:47:23.394Z,7.83
2024-05-09T05:47:56.484Z,7.83
2024-05-09T05:48:23.183Z,7.85
2024-05-09T05:48:49.659Z,7.87
2024-05-09T05:49:22.623Z,7.86
2024-05-09T05:49:48.965Z,7.87
2024-05-09T05:50:27.828Z,7.90
2024-05-09T05:50:53.737Z,7.92
2024-05-09T05:51:19.973Z,7.92
2024-05-09T05:51:52.686Z,7.93
2024-05-09T05:52:25.531Z,7.97
2024-05-09T05:52:58.242Z,7.98
2024-05-09T05:53:30.945Z,8.01
2024-05-09T05:54:03.609Z,8.02
2024-05-09T05:54:36.278Z,8.07
2024-05-09T05:55:08.970Z,8.08
2024-05-09T05:55:41.845Z,8.11
2024-05-09T05:56:12.783Z,8.11
2024-05-09T05:56:45.545Z,8.15
2024-05-09T05:57:18.294Z,8.18
2024-05-09T05:57:50.952Z,8.20
2024-05-09T05:58:23.635Z,8.23
2024-05-09T05:58:56.508Z,8.23
2024-05-09T05:59:29.258Z,8.26
2024-05-09T06:00:02.202Z,8.26
2024-05-09T06:00:35.267Z,8.29
2024-05-09T06:01:01.138Z,8.29
2024-05-09T06:01:27.515Z,8.33
2024-05-09T06:02:00.425Z,8.36
2024-05-09T06:02:33.215Z,8.38
2024-05-09T06:03:06.338Z,8.41
2024-05-09T06:03:37.245Z,8.44
2024-05-09T06:04:10.139Z,8.48
2024-05-09T06:04:42.886Z,8.50
2024-05-09T06:05:15.728Z,8.53
2024-05-09T06:05:47.061Z,8.55
2024-05-09T06:06:13.382Z,8.58
2024-05-09T06:06:46.025Z,8.59
2024-05-09T06:07:18.712Z,8.61
2024-05-09T06:07:51.423Z,8.63
2024-05-09T06:08:27.098Z,8.66
2024-05-09T06:08:54.999Z,8.68
2024-05-09T06:09:27.685Z,8.70
2024-05-09T06:10:00.371Z,8.71
2024-05-09T06:10:38.350Z,8.74
2024-05-09T06:11:05.190Z,8.79
2024-05-09T06:11:31.759Z,8.81
2024-05-09T06:12:02.695Z,8.86
2024-05-09T06:12:35.370Z,8.86
2024-05-09T06:13:08.061Z,8.91
2024-05-09T06:13:40.714Z,8.95
2024-05-09T06:14:13.533Z,8.98
2024-05-09T06:14:46.291Z,9.02
2024-05-09T06:15:17.384Z,9.04
2024-05-09T06:15:50.056Z,9.10
2024-05-09T06:16:22.722Z,9.11
2024-05-09T06:16:58.052Z,9.13
2024-05-09T06:17:24.608Z,9.15
2024-05-09T06:17:51.008Z,9.18
2024-05-09T06:18:23.987Z,9.21
2024-05-09T06:18:50.529Z,9.24
2024-05-09T06:19:23.448Z,9.29
2024-05-09T06:19:56.493Z,9.32
2024-05-09T06:20:35.288Z,9.36
2024-05-09T06:21:01.325Z,9.38
2024-05-09T06:21:27.581Z,9.43
2024-05-09T06:22:00.257Z,9.47
2024-05-09T06:22:31.365Z,9.48
2024-05-09T06:23:04.151Z,9.51
2024-05-09T06:23:36.968Z,9.53
2024-05-09T06:24:09.640Z,9.56
2024-05-09T06:24:42.977Z,9.58
2024-05-09T06:25:09.131Z,9.60
2024-05-09T06:25:41.903Z,9.64
2024-05-09T06:26:14.793Z,9.66
2024-05-09T06:26:47.473Z,9.68
2024-05-09T06:27:20.283Z,9.71
2024-05-09T06:27:52.942Z,9.74
2024-05-09T06:28:25.630Z,9.75
2024-05-09T06:28:58.378Z,9.76
2024-05-09T06:29:31.282Z,9.86
2024-05-09T06:29:57.587Z,9.86
2024-05-09T06:30:37.807Z,9.89
2024-05-09T06:31:02.466Z,9.90
2024-05-09T06:31:28.625Z,9.94
2024-05-09T06:32:01.428Z,9.97
2024-05-09T06:32:34.331Z,10.01
2024-05-09T06:33:05.952Z,10.04
2024-05-09T06:33:32.825Z,10.08
2024-05-09T06:33:59.365Z,10.08
2024-05-09T06:34:32.423Z,10.14
2024-05-09T06:34:58.687Z,10.18
2024-05-09T06:35:31.629Z,10.26
2024-05-09T06:35:58.010Z,10.32
2024-05-09T06:36:31.491Z,10.41
2024-05-09T06:36:57.643Z,10.47
2024-05-09T06:37:30.432Z,10.53
2024-05-09T06:38:03.097Z,10.56
2024-05-09T06:38:35.887Z,10.60
2024-05-09T06:39:08.637Z,10.64
2024-05-09T06:39:41.319Z,10.70
2024-05-09T06:40:17.472Z,10.73
2024-05-09T06:40:44.705Z,10.78
2024-05-09T06:41:11.171Z,10.84
2024-05-09T06:41:44.032Z,10.89
2024-05-09T06:42:16.712Z,10.94
2024-05-09T06:42:49.386Z,11.00
2024-05-09T06:43:22.050Z,11.04
2024-05-09T06:43:54.818Z,11.11
2024-05-09T06:44:27.586Z,11.17
2024-05-09T06:45:00.385Z,11.22
2024-05-09T06:45:33.034Z,11.28
2024-05-09T06:46:05.853Z,11.33
2024-05-09T06:46:38.518Z,11.36
2024-05-09T06:47:11.280Z,11.39
2024-05-09T06:47:44.160Z,11.40
2024-05-09T06:48:17.044Z,11.44
2024-05-09T06:48:50.023Z,11.47
2024-05-09T06:49:22.857Z,11.49
2024-05-09T06:49:55.587Z,11.54
2024-05-09T06:50:35.277Z,11.60
2024-05-09T06:51:00.386Z,11.64
2024-05-09T06:51:26.569Z,11.67
2024-05-09T06:51:59.263Z,11.73
2024-05-09T06:52:32.426Z,11.79
2024-05-09T06:52:58.633Z,11.82
2024-05-09T06:53:31.308Z,11.86
2024-05-09T06:54:04.113Z,11.91
2024-05-09T06:54:36.783Z,11.96
2024-05-09T06:55:09.446Z,11.99
2024-05-09T06:55:42.121Z,11.98
2024-05-09T06:56:14.850Z,11.99
2024-05-09T06:56:47.543Z,12.01
2024-05-09T06:57:20.331Z,12.05
2024-05-09T06:57:53.008Z,12.07
2024-05-09T06:58:26.173Z,12.07
2024-05-09T06:58:52.510Z,12.10
2024-05-09T06:59:25.261Z,12.14
2024-05-09T06:59:57.934Z,12.21
2024-05-09T07:00:38.174Z,12.29
2024-05-09T07:01:02.753Z,12.34
2024-05-09T07:01:29.008Z,12.38
2024-05-09T07:02:01.745Z,12.38
2024-05-09T07:02:34.518Z,12.47
2024-05-09T07:03:07.412Z,12.53
2024-05-09T07:03:40.469Z,12.57
2024-05-09T07:04:13.486Z,12.65